Time;durP1;ratioP1;P1;durP2;ratioP2;P2;SDS_P1;SDS_P2;PMS_P1;PMS_P2;Temp;Humidity;BMP_temperature;BMP_pressure;BME280_temperature;BME280_humidity;BME280_pressure;Samples;Min_cycle;Max_cycle;Signal;HPM_P1;HPM_P2
2022/03/26 00:00:48;;;;;;;;;;;;;;;6.22;100.00;100744.75;5097170;28;20294;-78
2022/03/26 00:03:31;;;;;;;;;;;;;;;6.23;100.00;100749.13;5096967;28;20452;-78
2022/03/26 00:05:59;;;;;;;;;;;;;;;6.03;100.00;100741.84;5096772;28;19950;-78
2022/03/26 00:08:26;;;;;;;;;;;;;;;5.98;100.00;100750.41;5097155;28;20374;-78
2022/03/26 00:10:53;;;;;;;;;;;;;;;6.13;100.00;100750.47;5096065;28;19950;-78
2022/03/26 00:13:21;;;;;;;;;;;;;;;6.12;100.00;100737.72;5095887;28;19924;-78
2022/03/26 00:15:48;;;;;;;;;;;;;;;5.99;100.00;100747.28;5095866;28;20295;-78
2022/03/26 00:18:17;;;;;;;;;;;;;;;6.06;100.00;100752.22;5096443;28;20010;-78
2022/03/26 00:21:05;;;;;;;;;;;;;;;6.14;100.00;100749.28;5094135;28;20007;-78
2022/03/26 00:23:32;;;;;;;;;;;;;;;6.10;100.00;100756.72;5096914;28;19935;-78
2022/03/26 00:26:01;;;;;;;;;;;;;;;6.03;100.00;100756.50;5096853;28;19924;-78
2022/03/26 00:28:40;;;;;;;;;;;;;;;6.03;100.00;100752.94;5096682;28;20007;-78
2022/03/26 00:31:08;;;;;;;;;;;;;;;5.89;100.00;100753.34;5095456;28;19966;-78
2022/03/26 00:33:35;;;;;;;;;;;;;;;5.83;100.00;100760.25;5095344;28;20303;-78
2022/03/26 00:36:02;;;;;;;;;;;;;;;5.76;100.00;100759.22;5096587;28;19993;-78
2022/03/26 00:38:29;;;;;;;;;;;;;;;5.57;100.00;100757.88;5096462;28;19931;-78
2022/03/26 00:40:58;;;;;;;;;;;;;;;5.68;100.00;100758.19;5095079;28;19973;-78
2022/03/26 00:43:25;;;;;;;;;;;;;;;5.78;100.00;100763.28;5096330;28;19924;-78
2022/03/26 00:46:11;;;;;;;;;;;;;;;5.78;100.00;100754.13;5096216;28;20384;-78
2022/03/26 00:48:59;;;;;;;;;;;;;;;5.81;100.00;100757.03;5096409;28;19931;-78
2022/03/26 00:51:47;;;;;;;;;;;;;;;5.80;100.00;100754.59;5096055;28;19924;-79
2022/03/26 00:54:41;;;;;;;;;;;;;;;5.75;100.00;100752.06;5000402;28;20464;-78
2022/03/26 00:57:33;;;;;;;;;;;;;;;5.70;100.00;100755.06;4988624;28;19930;-78
2022/03/26 01:00:26;;;;;;;;;;;;;;;5.70;100.00;100753.13;4980418;28;19933;-78
2022/03/26 01:03:18;;;;;;;;;;;;;;;5.42;100.00;100755.81;4955416;29;19926;-78
2022/03/26 01:06:04;;;;;;;;;;;;;;;5.62;100.00;100759.59;4955035;29;20025;-78
2022/03/26 01:08:50;;;;;;;;;;;;;;;5.57;100.00;100760.66;4955126;29;19973;-78
2022/03/26 01:11:36;;;;;;;;;;;;;;;5.49;100.00;100758.84;4955338;29;19934;-78
2022/03/26 01:14:22;;;;;;;;;;;;;;;5.49;100.00;100758.84;4941859;29;19973;-78
2022/03/26 01:17:08;;;;;;;;;;;;;;;5.48;100.00;100759.97;4968188;28;19933;-78
2022/03/26 01:19:54;;;;;;;;;;;;;;;5.58;100.00;100762.28;4961019;28;19934;-78
2022/03/26 01:22:40;;;;;;;;;;;;;;;5.62;100.00;100764.34;4974489;28;19934;-78
2022/03/26 01:25:26;;;;;;;;;;;;;;;5.64;100.00;100762.84;4974268;28;19932;-78
2022/03/26 01:28:11;;;;;;;;;;;;;;;5.58;100.00;100753.97;4973172;28;19977;-78
2022/03/26 01:30:57;;;;;;;;;;;;;;;5.55;100.00;100757.44;4982733;28;19933;-78
2022/03/26 01:33:42;;;;;;;;;;;;;;;5.50;100.00;100762.41;5013174;28;20032;-78
2022/03/26 01:36:28;;;;;;;;;;;;;;;5.40;100.00;100749.84;5013064;28;19940;-78
2022/03/26 01:39:14;;;;;;;;;;;;;;;5.33;100.00;100760.69;5014404;28;19948;-78
2022/03/26 01:42:06;;;;;;;;;;;;;;;5.34;100.00;100754.00;5075043;28;19932;-78
2022/03/26 01:44:52;;;;;;;;;;;;;;;5.43;100.00;100754.69;5074028;28;19977;-78
2022/03/26 01:47:37;;;;;;;;;;;;;;;5.33;100.00;100752.38;5075008;28;20267;-78
2022/03/26 01:50:07;;;;;;;;;;;;;;;5.37;100.00;100753.31;5073430;28;19928;-78
2022/03/26 01:52:34;;;;;;;;;;;;;;;5.39;100.00;100748.19;5073416;28;19932;-78
2022/03/26 01:55:01;;;;;;;;;;;;;;;5.33;100.00;100746.81;5074662;28;19928;-78
2022/03/26 01:57:28;;;;;;;;;;;;;;;5.34;100.00;100748.47;5074542;28;19924;-78
2022/03/26 01:59:55;;;;;;;;;;;;;;;5.36;100.00;100750.88;5074394;28;19990;-78
2022/03/26 02:02:23;;;;;;;;;;;;;;;5.36;100.00;100743.34;5091739;28;20446;-78
2022/03/26 02:04:51;;;;;;;;;;;;;;;5.32;100.00;100748.00;5094653;28;19924;-78
2022/03/26 02:07:18;;;;;;;;;;;;;;;5.23;100.00;100747.31;5093426;28;20023;-78
2022/03/26 02:09:45;;;;;;;;;;;;;;;5.09;100.00;100741.31;5093323;28;19928;-78
2022/03/26 02:12:32;;;;;;;;;;;;;;;5.05;100.00;100740.38;5092893;28;19924;-78
2022/03/26 02:15:00;;;;;;;;;;;;;;;5.01;100.00;100742.22;5093229;28;19924;-78
2022/03/26 02:17:27;;;;;;;;;;;;;;;4.88;100.00;100746.16;5094685;28;19925;-78
2022/03/26 02:19:58;;;;;;;;;;;;;;;4.84;100.00;100745.25;5093400;28;19931;-78
2022/03/26 02:22:27;;;;;;;;;;;;;;;4.83;100.00;100748.34;5093366;28;20364;-78
2022/03/26 02:25:06;;;;;;;;;;;;;;;4.96;100.00;100741.66;5093308;28;20282;-78
2022/03/26 02:27:33;;;;;;;;;;;;;;;5.04;100.00;100738.75;5092793;28;20267;-78
2022/03/26 02:30:01;;;;;;;;;;;;;;;5.07;100.00;100743.59;5093070;28;20332;-78
2022/03/26 02:32:28;;;;;;;;;;;;;;;5.07;100.00;100735.28;5094553;28;19924;-78
2022/03/26 02:35:25;;;;;;;;;;;;;;;4.90;100.00;100731.97;4999844;28;19925;-78
2022/03/26 02:38:24;;;;;;;;;;;;;;;4.78;100.00;100729.19;5010955;28;19976;-78
2022/03/26 02:41:10;;;;;;;;;;;;;;;4.90;100.00;100727.25;4998442;28;19984;-78
2022/03/26 02:43:56;;;;;;;;;;;;;;;4.89;100.00;100725.59;5012197;28;20067;-78
2022/03/26 02:47:01;;;;;;;;;;;;;;;4.86;100.00;100725.50;4915433;29;19927;-78
2022/03/26 02:49:47;;;;;;;;;;;;;;;4.84;100.00;100723.09;4915388;29;19970;-74
2022/03/26 02:52:52;;;;;;;;;;;;;;;4.79;100.00;100731.59;4885822;29;19927;-78
2022/03/26 02:55:38;;;;;;;;;;;;;;;4.71;100.00;100724.22;4896826;29;19938;-78
2022/03/26 02:58:24;;;;;;;;;;;;;;;4.79;100.00;100720.53;4896009;29;20084;-78
2022/03/26 03:01:10;;;;;;;;;;;;;;;4.80;100.00;100724.13;4896594;29;19979;-78
2022/03/26 03:03:56;;;;;;;;;;;;;;;4.45;100.00;100726.50;4896438;29;20055;-78
2022/03/26 03:06:54;;;;;;;;;;;;;;;4.55;100.00;100730.75;4886396;29;19990;-78
2022/03/26 03:09:40;;;;;;;;;;;;;;;4.57;100.00;100722.94;4896592;29;19934;-78
2022/03/26 03:12:26;;;;;;;;;;;;;;;4.58;100.00;100725.34;4949800;28;19932;-78
2022/03/26 03:15:12;;;;;;;;;;;;;;;4.50;100.00;100729.03;4959436;28;19998;-78
2022/03/26 03:17:58;;;;;;;;;;;;;;;4.55;100.00;100728.81;5014718;28;19968;-78
2022/03/26 03:20:44;;;;;;;;;;;;;;;4.58;100.00;100719.81;5016518;28;19936;-78
2022/03/26 03:23:29;;;;;;;;;;;;;;;4.59;100.00;100721.41;5052104;28;20382;-78
2022/03/26 03:25:59;;;;;;;;;;;;;;;4.56;100.00;100727.66;5077156;28;19983;-78
2022/03/26 03:28:46;;;;;;;;;;;;;;;4.48;100.00;100719.47;5074341;28;19925;-78
2022/03/26 03:31:33;;;;;;;;;;;;;;;4.57;100.00;100726.53;5077524;28;20062;-78
2022/03/26 03:34:19;;;;;;;;;;;;;;;4.56;100.00;100727.66;5076797;28;20555;-78
2022/03/26 03:37:05;;;;;;;;;;;;;;;4.34;100.00;100730.84;5077731;28;20279;-78
2022/03/26 03:39:50;;;;;;;;;;;;;;;4.51;100.00;100730.66;5076413;28;19963;-78
2022/03/26 03:43:01;;;;;;;;;;;;;;;4.51;100.00;100738.97;5077699;28;19946;-78
2022/03/26 03:45:50;;;;;;;;;;;;;;;4.51;100.00;100741.72;5077575;28;19932;-78
2022/03/26 03:48:36;;;;;;;;;;;;;;;4.50;100.00;100745.63;5076331;28;19963;-78
2022/03/26 03:51:22;;;;;;;;;;;;;;;4.42;100.00;100742.97;5077566;28;19931;-78
2022/03/26 03:54:08;;;;;;;;;;;;;;;4.41;100.00;100753.22;5076641;28;20371;-78
2022/03/26 03:56:56;;;;;;;;;;;;;;;4.36;100.00;100749.88;5052003;28;19932;-78
2022/03/26 03:59:42;;;;;;;;;;;;;;;4.35;100.00;100749.06;5076077;28;19978;-78
2022/03/26 04:02:29;;;;;;;;;;;;;;;4.35;100.00;100746.28;5077291;28;19931;-78
2022/03/26 04:05:16;;;;;;;;;;;;;;;4.21;100.00;100754.09;5048297;28;19963;-78
2022/03/26 04:08:02;;;;;;;;;;;;;;;3.96;100.00;100752.38;5062114;28;19932;-78
2022/03/26 04:10:48;;;;;;;;;;;;;;;3.95;100.00;100753.53;5075764;28;19970;-78
2022/03/26 04:13:33;;;;;;;;;;;;;;;4.14;100.00;100753.84;5077256;28;19930;-78
2022/03/26 04:16:01;;;;;;;;;;;;;;;4.27;100.00;100747.19;5075640;28;20043;-78
2022/03/26 04:18:29;;;;;;;;;;;;;;;4.27;100.00;100751.94;5076859;28;19944;-78
2022/03/26 04:21:12;;;;;;;;;;;;;;;4.33;100.00;100750.56;5075534;28;19932;-78
2022/03/26 04:23:40;;;;;;;;;;;;;;;4.31;100.00;100756.44;5076491;28;20267;-78
2022/03/26 04:26:28;;;;;;;;;;;;;;;4.25;100.00;100757.81;5020502;28;19932;-78
2022/03/26 04:28:55;;;;;;;;;;;;;;;4.21;100.00;100754.09;5034301;28;19925;-78
2022/03/26 04:31:38;;;;;;;;;;;;;;;4.12;100.00;100761.66;5018947;28;19926;-78
2022/03/26 04:34:28;;;;;;;;;;;;;;;4.04;100.00;100759.81;5032939;28;19972;-78
2022/03/26 04:36:59;;;;;;;;;;;;;;;4.11;100.00;100762.81;5018019;28;20422;-78
2022/03/26 04:39:43;;;;;;;;;;;;;;;4.06;100.00;100762.22;5005748;28;19992;-78
2022/03/26 04:42:10;;;;;;;;;;;;;;;4.19;100.00;100761.13;5017581;28;19929;-78
2022/03/26 04:44:58;;;;;;;;;;;;;;;4.20;100.00;100758.00;5020036;28;20300;-78
2022/03/26 04:47:47;;;;;;;;;;;;;;;4.20;100.00;100757.19;5020089;28;19925;-78
2022/03/26 04:50:15;;;;;;;;;;;;;;;4.21;100.00;100765.16;5017553;28;19929;-78
2022/03/26 04:53:09;;;;;;;;;;;;;;;4.10;100.00;100757.63;5041607;28;20003;-78
2022/03/26 04:56:01;;;;;;;;;;;;;;;4.06;100.00;100759.47;5053753;28;19924;-78
2022/03/26 04:58:55;;;;;;;;;;;;;;;4.17;100.00;100763.41;5096281;28;19932;-78
2022/03/26 05:01:44;;;;;;;;;;;;;;;4.15;100.00;100760.97;5065902;28;20017;-78
2022/03/26 05:04:12;;;;;;;;;;;;;;;4.08;100.00;100755.19;5060655;28;20083;-78
2022/03/26 05:07:45;;;;;;;;;;;;;;;4.19;100.00;100758.34;5091345;28;19971;-78
2022/03/26 05:10:09;;;;;;;;;;;;;;;4.13;100.00;100757.75;5079195;28;19924;-78
2022/03/26 05:12:58;;;;;;;;;;;;;;;4.04;100.00;100757.03;5093700;28;19951;-78
2022/03/26 05:15:27;;;;;;;;;;;;;;;3.85;100.00;100756.69;5093520;28;20028;-78
2022/03/26 05:18:00;;;;;;;;;;;;;;;3.95;100.00;100755.50;5093751;28;19924;-78
2022/03/26 05:20:56;;;;;;;;;;;;;;;4.09;100.00;100761.53;5013498;28;19925;-78
2022/03/26 05:23:24;;;;;;;;;;;;;;;3.80;100.00;100762.47;5013269;28;20020;-78
2022/03/26 05:25:52;;;;;;;;;;;;;;;3.99;100.00;100762.75;5013548;28;20068;-78
2022/03/26 05:28:21;;;;;;;;;;;;;;;3.98;100.00;100761.16;5013475;28;19930;-78
2022/03/26 05:30:49;;;;;;;;;;;;;;;3.98;100.00;100766.69;5013230;28;19933;-78
2022/03/26 05:33:37;;;;;;;;;;;;;;;3.97;100.00;100764.25;5013309;28;20033;-78
2022/03/26 05:36:27;;;;;;;;;;;;;;;4.02;100.00;100767.63;5008304;28;19930;-78
2022/03/26 05:38:59;;;;;;;;;;;;;;;4.08;100.00;100766.25;4997552;28;19965;-78
2022/03/26 05:41:46;;;;;;;;;;;;;;;3.68;100.00;100767.91;4999431;28;19926;-78
2022/03/26 05:44:20;;;;;;;;;;;;;;;3.51;100.00;100768.81;5013059;28;19964;-78
2022/03/26 05:46:48;;;;;;;;;;;;;;;3.76;100.00;100774.53;5012294;28;19933;-78
2022/03/26 05:49:44;;;;;;;;;;;;;;;3.95;100.00;100783.97;4996059;28;19929;-78
2022/03/26 05:52:14;;;;;;;;;;;;;;;4.01;100.00;100781.78;5012611;28;19979;-78
2022/03/26 05:54:42;;;;;;;;;;;;;;;4.12;100.00;100783.00;5012947;28;19933;-78
2022/03/26 05:57:11;;;;;;;;;;;;;;;4.14;100.00;100786.22;5018618;28;20062;-78
2022/03/26 05:59:45;;;;;;;;;;;;;;;4.11;100.00;100796.00;5095071;28;19931;-78
2022/03/26 06:02:13;;;;;;;;;;;;;;;3.96;100.00;100791.09;5095047;28;20074;-78
2022/03/26 06:04:43;;;;;;;;;;;;;;;4.06;100.00;100787.91;5094769;28;20017;-78
2022/03/26 06:07:11;;;;;;;;;;;;;;;4.13;100.00;100795.69;5093449;28;20480;-78
2022/03/26 06:09:38;;;;;;;;;;;;;;;4.08;100.00;100793.09;5093724;28;20264;-78
2022/03/26 06:12:09;;;;;;;;;;;;;;;4.10;100.00;100785.28;5093725;28;19924;-78
2022/03/26 06:14:36;;;;;;;;;;;;;;;4.20;100.00;100798.69;5094788;28;19925;-78
2022/03/26 06:17:12;;;;;;;;;;;;;;;4.13;100.00;100798.44;5093764;28;19932;-78
2022/03/26 06:20:00;;;;;;;;;;;;;;;4.02;100.00;100789.75;5094447;28;20046;-78
2022/03/26 06:22:51;;;;;;;;;;;;;;;4.15;100.00;100796.94;5088657;28;20378;-78
2022/03/26 06:25:38;;;;;;;;;;;;;;;4.26;100.00;100798.16;5079490;28;19951;-78
2022/03/26 06:28:30;;;;;;;;;;;;;;;4.22;100.00;100800.00;5094040;28;19977;-78
2022/03/26 06:31:19;;;;;;;;;;;;;;;4.29;100.00;100800.25;5083225;28;20007;-78
2022/03/26 06:34:15;;;;;;;;;;;;;;;4.18;100.00;100809.31;5068151;28;19928;-78
2022/03/26 06:37:02;;;;;;;;;;;;;;;4.39;100.00;100816.41;5074086;28;19970;-78
2022/03/26 06:40:12;;;;;;;;;;;;;;;4.40;100.00;100809.75;5073342;28;20031;-78
2022/03/26 06:42:57;;;;;;;;;;;;;;;4.58;100.00;100808.41;5073064;28;20263;-78
2022/03/26 06:45:24;;;;;;;;;;;;;;;4.46;100.00;100813.91;5073831;28;19928;-78
2022/03/26 06:48:20;;;;;;;;;;;;;;;4.64;100.00;100812.59;5026245;28;20332;-78
2022/03/26 06:51:00;;;;;;;;;;;;;;;4.78;100.00;100818.63;5035887;28;20367;-78
2022/03/26 06:53:29;;;;;;;;;;;;;;;5.13;100.00;100819.84;5051173;28;19950;-78
2022/03/26 06:55:59;;;;;;;;;;;;;;;5.92;100.00;100819.22;5035097;28;19928;-78
2022/03/26 06:58:27;;;;;;;;;;;;;;;6.75;100.00;100817.25;5018290;28;19983;-80
2022/03/26 07:00:58;;;;;;;;;;;;;;;7.32;100.00;100814.78;5035440;28;20047;-81
2022/03/26 07:03:35;;;;;;;;;;;;;;;7.76;100.00;100809.84;5035850;28;19936;-79
2022/03/26 07:06:10;;;;;;;;;;;;;;;8.49;100.00;100805.09;5051711;28;20007;-80
2022/03/26 07:08:38;;;;;;;;;;;;;;;9.00;100.00;100803.66;5051580;28;20071;-79
2022/03/26 07:11:05;;;;;;;;;;;;;;;9.44;100.00;100806.81;5050746;28;20271;-78
2022/03/26 07:13:32;;;;;;;;;;;;;;;9.84;100.00;100795.88;5034480;28;19965;-78
2022/03/26 07:16:00;;;;;;;;;;;;;;;10.29;100.00;100797.69;5050561;28;19924;-78
2022/03/26 07:18:28;;;;;;;;;;;;;;;10.54;100.00;100793.22;5053394;28;19925;-78
2022/03/26 07:21:00;;;;;;;;;;;;;;;10.31;100.00;100800.91;5073151;28;19924;-78
2022/03/26 07:23:48;;;;;;;;;;;;;;;10.01;100.00;100798.06;5073272;28;19971;-78
2022/03/26 07:26:23;;;;;;;;;;;;;;;10.47;100.00;100798.69;5072168;28;19932;-78
2022/03/26 07:29:10;;;;;;;;;;;;;;;11.09;100.00;100797.75;5073269;28;20380;-78
2022/03/26 07:31:57;;;;;;;;;;;;;;;11.87;100.00;100802.00;5071447;28;20015;-78
2022/03/26 07:34:28;;;;;;;;;;;;;;;12.11;100.00;100792.94;5075338;28;19924;-78
2022/03/26 07:36:56;;;;;;;;;;;;;;;12.39;100.00;100793.88;5080426;28;19935;-78
2022/03/26 07:39:23;;;;;;;;;;;;;;;12.82;100.00;100788.38;5082653;28;20255;-78
2022/03/26 07:41:52;;;;;;;;;;;;;;;13.00;100.00;100789.25;5084248;28;19931;-78
2022/03/26 07:44:23;;;;;;;;;;;;;;;13.26;100.00;100797.31;5087904;28;19924;-78
2022/03/26 07:47:09;;;;;;;;;;;;;;;13.32;100.00;100795.72;5092163;28;20263;-78
2022/03/26 07:50:11;;;;;;;;;;;;;;;13.53;100.00;100796.50;5038542;28;20312;-78
2022/03/26 07:53:04;;;;;;;;;;;;;;;14.12;100.00;100789.97;5011005;28;20020;-78
2022/03/26 07:55:50;;;;;;;;;;;;;;;14.45;100.00;100789.47;5039432;28;19947;-78
2022/03/26 07:58:18;;;;;;;;;;;;;;;14.65;100.00;100795.41;5043453;28;19931;-78
2022/03/26 08:01:06;;;;;;;;;;;;;;;14.89;100.00;100794.47;5049202;28;20372;-78
2022/03/26 08:03:54;;;;;;;;;;;;;;;15.36;100.00;100785.28;5050677;28;19940;-78
2022/03/26 08:06:39;;;;;;;;;;;;;;;15.60;100.00;100784.28;5017248;28;19932;-78
2022/03/26 08:09:25;;;;;;;;;;;;;;;15.85;100.00;100790.50;5034558;28;19962;-79
2022/03/26 08:12:11;;;;;;;;;;;;;;;16.18;100.00;100786.13;5034826;28;20018;-78
2022/03/26 08:14:47;;;;;;;;;;;;;;;16.50;100.00;100783.75;5018441;28;19926;-78
2022/03/26 08:17:16;;;;;;;;;;;;;;;16.61;100.00;100781.59;5034055;28;20345;-78
2022/03/26 08:19:43;;;;;;;;;;;;;;;16.39;100.00;100777.41;5034340;28;19925;-78
2022/03/26 08:22:12;;;;;;;;;;;;;;;16.44;100.00;100776.16;5034239;28;19968;-78
2022/03/26 08:24:39;;;;;;;;;;;;;;;16.48;100.00;100776.94;5054815;28;19931;-78
2022/03/26 08:27:07;;;;;;;;;;;;;;;16.68;100.00;100777.84;5075998;28;20010;-78
2022/03/26 08:29:39;;;;;;;;;;;;;;;16.89;100.00;100769.88;5076202;28;19990;-78
2022/03/26 08:32:11;;;;;;;;;;;;;;;17.12;100.00;100772.78;5082577;28;19925;-77
2022/03/26 08:34:38;;;;;;;;;;;;;;;17.05;100.00;100774.91;5074195;28;19943;-78
2022/03/26 08:37:10;;;;;;;;;;;;;;;17.21;100.00;100781.50;5078790;28;19925;-78
2022/03/26 08:39:58;;;;;;;;;;;;;;;17.48;100.00;100779.47;5076620;28;19924;-78
2022/03/26 08:42:28;;;;;;;;;;;;;;;17.70;100.00;100782.72;5091962;28;19955;-78
2022/03/26 08:44:58;;;;;;;;;;;;;;;18.01;100.00;100783.38;5089363;28;19931;-78
2022/03/26 08:47:25;;;;;;;;;;;;;;;18.27;100.00;100780.41;5092263;28;19935;-79
2022/03/26 08:49:53;;;;;;;;;;;;;;;18.51;100.00;100784.03;5092783;28;20295;-78
2022/03/26 08:53:57;;;;;;;;;;;;;;;18.76;100.00;100784.28;5085939;27;20355;-77
2022/03/26 08:56:24;;;;;;;;;;;;;;;18.67;100.00;100775.56;5092732;28;20333;-76
2022/03/26 08:58:52;;;;;;;;;;;;;;;18.63;100.00;100772.03;5072260;28;20411;-76
2022/03/26 09:01:21;;;;;;;;;;;;;;;18.65;100.00;100778.84;5086523;28;20310;-79
2022/03/26 09:03:50;;;;;;;;;;;;;;;18.60;100.00;100770.84;5087671;28;20294;-79
2022/03/26 09:06:17;;;;;;;;;;;;;;;18.18;100.00;100770.91;5092805;28;19924;-79
2022/03/26 09:08:50;;;;;;;;;;;;;;;17.60;100.00;100772.41;5107325;28;19924;-79
2022/03/26 09:11:18;;;;;;;;;;;;;;;17.32;100.00;100770.84;5089605;28;19924;-79
2022/03/26 09:13:45;;;;;;;;;;;;;;;17.09;100.00;100784.13;5074583;28;19924;-79
2022/03/26 09:16:12;;;;;;;;;;;;;;;17.22;100.00;100776.66;5092325;28;19972;-78
2022/03/26 09:18:40;;;;;;;;;;;;;;;17.53;100.00;100778.19;5083039;28;20388;-76
2022/03/26 09:21:08;;;;;;;;;;;;;;;17.78;100.00;100784.22;5084184;28;19959;-79
2022/03/26 09:23:35;;;;;;;;;;;;;;;17.98;100.00;100785.03;5065355;28;19954;-79
2022/03/26 09:26:07;;;;;;;;;;;;;;;17.96;100.00;100779.03;5125875;27;20016;-77
2022/03/26 09:28:40;;;;;;;;;;;;;;;17.69;100.00;100786.81;5090311;28;19924;-76
2022/03/26 09:31:08;;;;;;;;;;;;;;;17.51;100.00;100774.97;5086032;28;19924;-77
2022/03/26 09:33:56;;;;;;;;;;;;;;;17.42;100.00;100783.97;5078148;28;20003;-75
2022/03/26 09:36:36;;;;;;;;;;;;;;;17.46;100.00;100781.91;5087722;28;20249;-76
2022/03/26 09:39:24;;;;;;;;;;;;;;;17.42;100.00;100780.34;5083222;28;20385;-75
2022/03/26 09:41:53;;;;;;;;;;;;;;;17.24;100.00;100785.50;5080936;28;20041;-75
2022/03/26 09:44:31;;;;;;;;;;;;;;;17.17;100.00;100780.78;5083067;28;19924;-75
2022/03/26 09:47:00;;;;;;;;;;;;;;;17.20;100.00;100787.56;5105323;28;19924;-75
2022/03/26 09:49:42;;;;;;;;;;;;;;;17.36;100.00;100788.53;5088362;28;20306;-74
2022/03/26 09:52:09;;;;;;;;;;;;;;;17.48;100.00;100785.13;5083983;28;19939;-76
2022/03/26 09:54:46;;;;;;;;;;;;;;;17.47;100.00;100788.38;5088719;28;19923;-76
2022/03/26 09:57:14;;;;;;;;;;;;;;;17.45;100.00;100788.81;5099316;28;20002;-79
2022/03/26 09:59:58;;;;;;;;;;;;;;;17.35;100.00;100795.41;5086104;28;19924;-78
2022/03/26 10:02:32;;;;;;;;;;;;;;;17.35;100.00;100791.78;5085812;28;19932;-78
2022/03/26 10:05:00;;;;;;;;;;;;;;;17.63;100.00;100794.19;5074133;28;19925;-76
2022/03/26 10:07:29;;;;;;;;;;;;;;;17.85;100.00;100793.38;5073673;28;19932;-80
2022/03/26 10:10:02;;;;;;;;;;;;;;;17.81;100.00;100789.00;5073497;28;19925;-80
2022/03/26 10:12:32;;;;;;;;;;;;;;;17.96;100.00;100785.47;5074191;28;20512;-79
2022/03/26 10:15:00;;;;;;;;;;;;;;;17.65;100.00;100788.88;5075987;28;19925;-80
2022/03/26 10:17:35;;;;;;;;;;;;;;;17.61;100.00;100793.78;5075819;28;19974;-79
2022/03/26 10:20:03;;;;;;;;;;;;;;;17.74;100.00;100791.94;5075790;28;19931;-80
2022/03/26 10:22:41;;;;;;;;;;;;;;;18.04;100.00;100788.94;5088696;28;20309;-80
2022/03/26 10:25:14;;;;;;;;;;;;;;;18.21;100.00;100782.16;5094603;28;19928;-79
2022/03/26 10:27:45;;;;;;;;;;;;;;;18.31;100.00;100778.31;5082842;28;19969;-79
2022/03/26 10:30:14;;;;;;;;;;;;;;;18.61;100.00;100778.13;5076270;28;19932;-79
2022/03/26 10:33:17;;;;;;;;;;;;;;;18.35;100.00;100776.22;5071820;28;19925;-79
2022/03/26 10:35:52;;;;;;;;;;;;;;;18.17;100.00;100767.28;5083034;28;19928;-79
2022/03/26 10:38:19;;;;;;;;;;;;;;;18.23;100.00;100767.56;5073957;28;19924;-79
2022/03/26 10:41:06;;;;;;;;;;;;;;;18.05;100.00;100756.63;5075192;28;19924;-80
2022/03/26 10:43:35;;;;;;;;;;;;;;;18.25;100.00;100762.28;5082641;28;19924;-79
2022/03/26 10:46:24;;;;;;;;;;;;;;;18.27;100.00;100763.44;5077574;28;20433;-79
2022/03/26 10:49:10;;;;;;;;;;;;;;;18.22;100.00;100760.34;5060321;28;19950;-79
2022/03/26 10:51:56;;;;;;;;;;;;;;;18.35;100.00;100759.25;5074115;28;20370;-80
2022/03/26 10:54:42;;;;;;;;;;;;;;;18.17;100.00;100755.97;5074913;28;19932;-79
2022/03/26 10:57:28;;;;;;;;;;;;;;;18.06;100.00;100765.88;5075297;28;20028;-79
2022/03/26 11:00:15;;;;;;;;;;;;;;;18.14;100.00;100756.03;5094193;28;19995;-79
2022/03/26 11:03:01;;;;;;;;;;;;;;;18.78;100.00;100759.94;5095488;28;19982;-79
2022/03/26 11:05:46;;;;;;;;;;;;;;;18.73;100.00;100759.66;5095073;28;20069;-79
2022/03/26 11:08:37;;;;;;;;;;;;;;;18.42;100.00;100764.78;5007821;28;20016;-76
2022/03/26 11:11:22;;;;;;;;;;;;;;;18.59;100.00;100759.97;5000202;28;19983;-78
2022/03/26 11:14:17;;;;;;;;;;;;;;;18.05;100.00;100756.63;4997734;28;19937;-76
2022/03/26 11:17:25;;;;;;;;;;;;;;;18.61;100.00;100766.81;4995291;28;19953;-75
2022/03/26 11:20:27;;;;;;;;;;;;;;;18.30;100.00;100761.75;4991989;28;19933;-77
2022/03/26 11:23:19;;;;;;;;;;;;;;;18.57;100.00;100760.41;4978420;28;19969;-76
2022/03/26 11:26:24;;;;;;;;;;;;;;;18.55;100.00;100757.22;4953308;29;20418;-76
2022/03/26 11:29:19;;;;;;;;;;;;;;;18.32;100.00;100765.78;4948156;29;19980;-76
2022/03/26 11:32:52;;;;;;;;;;;;;;;18.07;100.00;100768.28;4857996;29;19984;-76
2022/03/26 11:36:10;;;;;;;;;;;;;;;18.58;100.00;100770.50;4835516;29;20433;-76
2022/03/26 11:39:11;;;;;;;;;;;;;;;18.62;100.00;100782.53;4852304;29;19936;-76
2022/03/26 11:52:25;;;;;;;;;;;;;;;18.42;100.00;100769.66;4914678;29;20455;-78
2022/03/26 11:55:15;;;;;;;;;;;;;;;18.86;100.00;100764.22;4915443;29;20019;-76
2022/03/26 11:58:23;;;;;;;;;;;;;;;18.50;100.00;100763.41;4946012;28;19937;-76
2022/03/26 12:08:38;;;;;;;;;;;;;;;18.13;100.00;100765.78;5009025;28;20308;-76
2022/03/26 12:11:31;;;;;;;;;;;;;;;18.19;100.00;100761.97;5010224;28;19932;-76
2022/03/26 12:14:17;;;;;;;;;;;;;;;18.77;100.00;100752.69;5011884;28;20400;-76
2022/03/26 12:17:12;;;;;;;;;;;;;;;18.39;100.00;100759.97;4997280;28;20055;-76
2022/03/26 12:24:39;;;;;;;;;;;;;;;19.06;100.00;100756.47;5013046;28;20050;-76
2022/03/26 12:28:43;;;;;;;;;;;;;;;18.34;100.00;100766.16;4932064;29;19941;-76
2022/03/26 12:31:33;;;;;;;;;;;;;;;18.31;100.00;100760.53;4995751;28;19932;-76
2022/03/26 12:34:21;;;;;;;;;;;;;;;18.58;100.00;100758.38;4999029;28;19937;-76
2022/03/26 12:37:30;;;;;;;;;;;;;;;18.36;100.00;100755.16;5003240;28;20008;-76
2022/03/26 12:40:16;;;;;;;;;;;;;;;18.32;100.00;100762.13;4992114;28;19969;-76
2022/03/26 12:43:02;;;;;;;;;;;;;;;18.59;100.00;100754.31;4991662;28;19994;-77
2022/03/26 12:45:49;;;;;;;;;;;;;;;18.38;100.00;100757.59;5005271;28;19933;-76
2022/03/26 12:48:35;;;;;;;;;;;;;;;18.12;100.00;100756.47;4999076;28;20407;-76
2022/03/26 12:51:22;;;;;;;;;;;;;;;18.32;100.00;100745.97;4996113;28;19969;-77
2022/03/26 12:54:08;;;;;;;;;;;;;;;18.25;100.00;100743.25;4986531;28;20012;-77
2022/03/26 12:56:54;;;;;;;;;;;;;;;18.47;100.00;100738.81;4979636;28;19941;-77
2022/03/26 12:59:39;;;;;;;;;;;;;;;18.80;100.00;100739.66;5048462;28;19935;-77
2022/03/26 13:02:25;;;;;;;;;;;;;;;18.49;100.00;100747.66;5060828;28;20011;-77
2022/03/26 13:05:11;;;;;;;;;;;;;;;18.95;100.00;100744.56;5028649;28;20010;-77
2022/03/26 13:07:57;;;;;;;;;;;;;;;18.78;100.00;100748.59;5038997;28;20063;-78
2022/03/26 13:10:43;;;;;;;;;;;;;;;18.73;100.00;100745.50;5067168;28;19986;-76
2022/03/26 13:13:29;;;;;;;;;;;;;;;18.50;100.00;100743.59;5055558;28;20473;-77
2022/03/26 13:16:17;;;;;;;;;;;;;;;18.72;100.00;100739.03;5053017;28;19967;-77
2022/03/26 13:19:03;;;;;;;;;;;;;;;18.41;100.00;100746.19;5053481;28;19931;-77
2022/03/26 13:21:49;;;;;;;;;;;;;;;18.45;100.00;100735.59;5053127;28;20011;-77
2022/03/26 13:24:35;;;;;;;;;;;;;;;18.63;100.00;100738.06;5053335;28;19932;-76
2022/03/26 13:27:21;;;;;;;;;;;;;;;18.81;100.00;100725.06;5077375;28;19931;-77
2022/03/26 13:30:08;;;;;;;;;;;;;;;18.71;100.00;100731.78;5045987;28;20375;-77
2022/03/26 13:33:01;;;;;;;;;;;;;;;18.52;100.00;100726.97;5091456;28;19974;-77
2022/03/26 13:35:55;;;;;;;;;;;;;;;18.75;100.00;100723.22;5055426;28;20058;-77
2022/03/26 13:38:42;;;;;;;;;;;;;;;18.10;100.00;100730.63;5038853;28;20322;-77
2022/03/26 13:41:28;;;;;;;;;;;;;;;18.05;100.00;100731.16;5049822;28;19979;-77
2022/03/26 13:44:13;;;;;;;;;;;;;;;18.30;100.00;100720.13;5055005;28;19978;-77
2022/03/26 13:47:00;;;;;;;;;;;;;;;18.58;100.00;100728.03;5056573;28;19932;-75
2022/03/26 13:49:35;;;;;;;;;;;;;;;18.44;100.00;100722.69;5057433;28;20016;-76
2022/03/26 13:52:42;;;;;;;;;;;;;;;18.58;100.00;100719.56;5021650;28;19925;-75
2022/03/26 13:55:33;;;;;;;;;;;;;;;18.50;100.00;100708.81;5015832;28;19925;-76
2022/03/26 13:58:23;;;;;;;;;;;;;;;18.36;100.00;100714.78;5015209;28;20420;-75
2022/03/26 14:01:09;;;;;;;;;;;;;;;18.26;100.00;100716.59;5034231;28;19936;-75
2022/03/26 14:03:58;;;;;;;;;;;;;;;18.53;100.00;100717.22;5033865;28;19936;-76
2022/03/26 14:06:49;;;;;;;;;;;;;;;18.59;100.00;100712.66;5039414;28;19933;-75